createdAt,value
2019-01-24T00:01:03.936Z,66.40
2019-01-24T00:03:33.344Z,72.10
2019-01-24T00:06:03.200Z,63.40
2019-01-24T00:08:32.825Z,64.23
2019-01-24T00:11:02.407Z,66.03
2019-01-24T00:13:32.153Z,61.33
2019-01-24T00:16:01.833Z,56.23
2019-01-24T00:18:31.468Z,47.87
2019-01-24T00:21:00.931Z,47.97
2019-01-24T00:23:30.502Z,45.43
2019-01-24T00:26:00.269Z,38.40
2019-01-24T00:28:29.974Z,39.03
2019-01-24T00:30:59.370Z,39.20
2019-01-24T00:33:29.156Z,43.13
2019-01-24T00:35:58.638Z,47.90
2019-01-24T00:38:28.035Z,46.27
2019-01-24T00:40:57.688Z,43.43
2019-01-24T00:43:27.425Z,45.33
2019-01-24T00:45:56.826Z,40.73
2019-01-24T00:48:26.305Z,41.40
2019-01-24T00:50:56.059Z,40.87
2019-01-24T00:53:25.463Z,38.10
2019-01-24T00:55:55.102Z,36.67
2019-01-24T00:58:25.025Z,32.23
2019-01-24T01:00:54.795Z,31.67
2019-01-24T01:03:24.354Z,26.20
2019-01-24T01:05:53.842Z,29.43
2019-01-24T01:08:23.762Z,38.80
2019-01-24T01:10:53.581Z,37.83
2019-01-24T01:13:22.985Z,39.93
2019-01-24T01:15:52.481Z,39.23
2019-01-24T01:18:22.245Z,34.40
2019-01-24T01:20:52.130Z,34.17
2019-01-24T01:23:21.521Z,29.87
2019-01-24T01:25:51.262Z,35.50
2019-01-24T01:28:20.660Z,37.17
2019-01-24T01:30:50.391Z,32.67
2019-01-24T01:33:20.321Z,30.97
2019-01-24T01:35:50.240Z,31.40
2019-01-24T01:38:19.990Z,28.23
2019-01-24T01:40:49.751Z,27.90
2019-01-24T01:43:19.636Z,31.90
2019-01-24T01:45:49.420Z,47.30
2019-01-24T01:48:19.243Z,30.97
2019-01-24T01:50:49.095Z,24.23
2019-01-24T01:53:18.597Z,28.53
2019-01-24T01:55:48.090Z,26.47
2019-01-24T01:58:17.762Z,24.53
2019-01-24T02:00:47.482Z,27.50
2019-01-24T02:03:17.279Z,29.50
2019-01-24T02:05:46.889Z,27.33
2019-01-24T02:08:16.382Z,22.43
2019-01-24T02:10:46.237Z,24.83
2019-01-24T02:13:15.631Z,24.37
2019-01-24T02:15:45.212Z,22.97
2019-01-24T02:18:15.291Z,23.07
2019-01-24T02:20:44.966Z,25.10
2019-01-24T02:23:14.643Z,32.03
2019-01-24T02:25:44.432Z,35.10
2019-01-24T02:28:14.447Z,28.53
2019-01-24T02:30:44.198Z,34.20
2019-01-24T02:33:13.653Z,34.83
2019-01-24T02:35:43.306Z,34.67
2019-01-24T02:38:12.920Z,33.47
2019-01-24T02:40:42.728Z,34.53
2019-01-24T02:43:12.383Z,37.33
2019-01-24T02:45:42.130Z,33.33
2019-01-24T02:48:11.706Z,29.00
2019-01-24T02:50:41.255Z,32.70
2019-01-24T02:53:11.068Z,28.17
2019-01-24T02:55:40.769Z,36.97
2019-01-24T02:58:10.369Z,28.90
2019-01-24T03:00:39.768Z,29.13
2019-01-24T03:03:09.314Z,27.20
2019-01-24T03:05:38.959Z,28.60
2019-01-24T03:08:08.369Z,32.17
2019-01-24T03:10:37.990Z,31.77
2019-01-24T03:13:07.818Z,30.63
2019-01-24T03:15:37.627Z,28.10
2019-01-24T03:18:07.523Z,41.40
2019-01-24T03:20:36.943Z,31.83
2019-01-24T03:23:06.574Z,33.23
2019-01-24T03:25:36.262Z,30.30
2019-01-24T03:28:06.073Z,29.17
2019-01-24T03:30:35.789Z,31.77
2019-01-24T03:33:05.469Z,29.30
2019-01-24T03:35:35.100Z,35.87
2019-01-24T03:38:04.690Z,33.43
2019-01-24T03:40:34.323Z,28.13
2019-01-24T03:43:03.712Z,31.40
2019-01-24T03:45:33.113Z,26.20
2019-01-24T03:48:02.603Z,22.33
2019-01-24T03:50:32.429Z,19.93
2019-01-24T03:53:02.131Z,22.93
2019-01-24T03:55:31.909Z,44.53
2019-01-24T03:58:01.674Z,31.27
2019-01-24T04:00:31.350Z,25.93
2019-01-24T04:03:00.771Z,30.03
2019-01-24T04:05:30.379Z,26.63
2019-01-24T04:08:00.212Z,26.20
2019-01-24T04:10:29.695Z,52.70
2019-01-24T04:12:59.086Z,46.00
2019-01-24T04:15:28.774Z,53.60
2019-01-24T04:17:58.674Z,45.87
2019-01-24T04:20:28.159Z,70.13
2019-01-24T04:22:57.708Z,59.23
2019-01-24T04:25:27.438Z,46.40
2019-01-24T04:27:56.922Z,46.33
2019-01-24T04:30:26.756Z,48.30
2019-01-24T04:32:56.144Z,46.23
2019-01-24T04:35:25.565Z,23.67
2019-01-24T04:37:55.056Z,16.63
2019-01-24T04:40:24.790Z,80.17
2019-01-24T04:42:54.439Z,208.87
2019-01-24T04:45:24.155Z,179.83
2019-01-24T04:47:53.880Z,103.50
2019-01-24T04:50:23.818Z,206.57
2019-01-24T04:52:53.430Z,45.73
2019-01-24T04:55:23.214Z,37.13
2019-01-24T04:57:52.801Z,30.33
2019-01-24T05:00:25.171Z,28.63
2019-01-24T05:02:54.739Z,33.77
2019-01-24T05:05:28.016Z,31.03
2019-01-24T05:07:55.854Z,36.67
2019-01-24T05:10:25.569Z,32.17
2019-01-24T05:12:55.289Z,29.30
2019-01-24T05:15:25.099Z,27.60
2019-01-24T05:17:54.689Z,26.00
2019-01-24T05:20:24.374Z,23.53
2019-01-24T05:22:54.217Z,26.37
2019-01-24T05:25:23.875Z,25.10
2019-01-24T05:27:53.698Z,27.37
2019-01-24T05:30:25.836Z,31.00
2019-01-24T05:32:55.562Z,47.53
2019-01-24T05:35:25.425Z,52.73
2019-01-24T05:37:55.304Z,45.70
2019-01-24T05:40:25.193Z,41.67
2019-01-24T05:42:54.741Z,40.00
2019-01-24T05:45:24.874Z,69.27
2019-01-24T05:47:54.361Z,60.23
2019-01-24T05:50:24.568Z,63.23
2019-01-24T05:52:54.207Z,29.97
2019-01-24T05:55:23.919Z,24.10
2019-01-24T05:57:53.744Z,22.27
2019-01-24T06:00:29.459Z,97.13
2019-01-24T06:02:58.927Z,20.17
2019-01-24T06:05:28.790Z,20.43
2019-01-24T06:07:58.189Z,22.90
2019-01-24T06:10:27.854Z,27.00
2019-01-24T06:12:57.341Z,32.13
2019-01-24T06:15:26.937Z,103.43
2019-01-24T06:17:56.331Z,122.37
2019-01-24T06:20:26.035Z,123.90
2019-01-24T06:22:55.924Z,100.07
2019-01-24T06:25:25.791Z,210.53
2019-01-24T06:27:55.570Z,289.97
2019-01-24T06:30:25.098Z,246.17
2019-01-24T06:32:54.806Z,150.20
2019-01-24T06:35:24.482Z,59.30
2019-01-24T06:37:54.293Z,34.97
2019-01-24T06:40:23.924Z,22.17
2019-01-24T06:42:53.683Z,34.77
2019-01-24T06:45:23.930Z,12.67
2019-01-24T06:47:53.541Z,8.87
2019-01-24T06:50:23.305Z,9.43
2019-01-24T06:52:53.087Z,15.87
2019-01-24T06:55:29.892Z,12.60
2019-01-24T06:57:59.318Z,15.83
2019-01-24T07:00:29.164Z,15.87
2019-01-24T07:02:58.813Z,18.13
2019-01-24T07:05:28.674Z,17.10
2019-01-24T07:07:58.079Z,22.63
2019-01-24T07:10:27.850Z,67.97
2019-01-24T07:12:57.353Z,170.17
2019-01-24T07:15:27.130Z,124.33
2019-01-24T07:17:56.539Z,136.57
2019-01-24T07:20:25.959Z,131.43
2019-01-24T07:22:55.439Z,33.17
2019-01-24T07:25:26.629Z,62.47
2019-01-24T07:27:56.479Z,67.43
2019-01-24T07:30:25.970Z,39.13
2019-01-24T07:32:55.567Z,26.47
2019-01-24T07:35:25.251Z,22.73
2019-01-24T07:37:55.115Z,23.13
2019-01-24T07:40:24.806Z,22.00
2019-01-24T07:42:54.395Z,18.33
2019-01-24T07:45:32.415Z,20.33
2019-01-24T07:48:02.074Z,15.23
2019-01-24T07:50:31.762Z,12.97
2019-01-24T07:53:01.806Z,19.20
2019-01-24T07:55:33.679Z,15.30
2019-01-24T07:58:03.734Z,14.80
2019-01-24T08:00:33.444Z,16.40
2019-01-24T08:03:03.049Z,14.00
2019-01-24T08:05:32.660Z,34.17
2019-01-24T08:08:02.264Z,25.50
2019-01-24T08:10:31.922Z,27.23
2019-01-24T08:13:01.478Z,28.20
2019-01-24T08:15:30.967Z,27.10
2019-01-24T08:18:00.681Z,22.47
2019-01-24T08:20:30.473Z,25.20
2019-01-24T08:22:59.974Z,33.20
2019-01-24T08:25:29.570Z,35.00
2019-01-24T08:27:59.114Z,41.90
2019-01-24T08:30:30.529Z,68.30
2019-01-24T08:33:00.403Z,37.43
2019-01-24T08:35:30.287Z,41.70
2019-01-24T08:37:59.900Z,39.90
2019-01-24T08:40:29.657Z,32.37
2019-01-24T08:42:59.215Z,25.27
2019-01-24T08:45:28.605Z,27.20
2019-01-24T08:47:58.495Z,30.77
2019-01-24T08:50:28.536Z,25.10
2019-01-24T08:52:58.296Z,23.33
2019-01-24T08:55:33.469Z,25.90
2019-01-24T08:58:03.914Z,26.77
2019-01-24T09:00:34.121Z,29.67
2019-01-24T09:03:04.045Z,25.17
2019-01-24T09:05:34.134Z,27.97
2019-01-24T09:08:03.805Z,28.93
2019-01-24T09:10:36.228Z,20.13
2019-01-24T09:13:06.931Z,19.47
2019-01-24T09:15:37.018Z,19.53
2019-01-24T09:18:07.591Z,18.43
2019-01-24T09:20:38.012Z,19.30
2019-01-24T09:23:08.177Z,14.43
2019-01-24T09:25:37.831Z,15.97
2019-01-24T09:28:07.350Z,20.13
2019-01-24T09:30:37.935Z,17.80
2019-01-24T09:33:07.325Z,14.47
2019-01-24T09:35:36.891Z,13.70
2019-01-24T09:38:06.546Z,11.70
2019-01-24T09:40:35.970Z,14.43
2019-01-24T09:43:05.780Z,14.80
2019-01-24T09:45:35.227Z,15.87
2019-01-24T09:48:07.022Z,16.60
2019-01-24T09:50:36.704Z,14.00
2019-01-24T09:53:06.419Z,19.70
2019-01-24T09:55:35.944Z,20.23
2019-01-24T09:58:05.693Z,16.53
2019-01-24T10:00:38.817Z,16.83
2019-01-24T10:03:08.731Z,16.93
2019-01-24T10:05:38.526Z,14.77
2019-01-24T10:08:08.805Z,22.47
2019-01-24T10:10:38.549Z,15.23
2019-01-24T10:13:08.464Z,18.57
2019-01-24T10:15:37.922Z,16.13
2019-01-24T10:18:07.422Z,17.63
2019-01-24T10:20:36.952Z,17.30
2019-01-24T10:23:06.649Z,19.07
2019-01-24T10:25:40.576Z,14.37
2019-01-24T10:28:10.594Z,18.57
2019-01-24T10:30:43.218Z,47.37
2019-01-24T10:33:11.282Z,29.47
2019-01-24T10:35:41.102Z,15.00
2019-01-24T10:38:10.704Z,26.40
2019-01-24T10:40:40.536Z,61.97
2019-01-24T10:43:10.327Z,15.73
2019-01-24T10:45:40.074Z,11.83
2019-01-24T10:48:10.011Z,23.53
2019-01-24T10:50:39.878Z,17.43
2019-01-24T10:53:09.576Z,21.87
2019-01-24T10:55:39.459Z,16.23
2019-01-24T10:58:09.103Z,13.20
2019-01-24T11:00:41.292Z,11.87
2019-01-24T11:03:13.265Z,15.00
2019-01-24T11:05:42.843Z,14.07
2019-01-24T11:08:12.704Z,20.97
2019-01-24T11:10:42.371Z,25.30
2019-01-24T11:13:11.772Z,28.57
2019-01-24T11:15:41.685Z,38.27
2019-01-24T11:18:11.497Z,32.13
2019-01-24T11:20:41.496Z,15.97
2019-01-24T11:23:11.177Z,53.73
2019-01-24T11:25:41.006Z,23.47
2019-01-24T11:28:10.667Z,29.17
2019-01-24T11:30:40.466Z,69.57
2019-01-24T11:33:10.607Z,21.73
2019-01-24T11:35:40.725Z,13.07
2019-01-24T11:38:11.808Z,12.63
2019-01-24T11:40:41.251Z,18.57
2019-01-24T11:43:11.098Z,18.93
2019-01-24T11:45:42.581Z,24.27
2019-01-24T11:48:12.161Z,15.10
2019-01-24T11:50:41.827Z,12.10
2019-01-24T11:53:11.871Z,11.30
2019-01-24T11:55:41.807Z,24.50
2019-01-24T11:58:11.220Z,30.47
2019-01-24T12:00:46.095Z,32.07
2019-01-24T12:03:15.992Z,82.83
2019-01-24T12:05:45.659Z,38.00
2019-01-24T12:08:15.161Z,16.13
2019-01-24T12:10:44.903Z,16.53
2019-01-24T12:13:14.559Z,25.00
2019-01-24T12:15:44.244Z,29.93
2019-01-24T12:18:14.073Z,22.10
2019-01-24T12:20:43.936Z,22.57
2019-01-24T12:23:13.409Z,23.80
2019-01-24T12:25:43.076Z,28.77
2019-01-24T12:28:12.865Z,20.43
2019-01-24T12:30:42.304Z,21.90
2019-01-24T12:33:11.874Z,66.67
2019-01-24T12:35:41.347Z,36.03
2019-01-24T12:38:11.303Z,24.57
2019-01-24T12:40:40.732Z,35.70
2019-01-24T12:43:10.191Z,36.10
2019-01-24T12:45:39.996Z,45.03
2019-01-24T12:48:09.606Z,23.60
2019-01-24T12:50:39.349Z,19.27
2019-01-24T12:53:10.610Z,15.43
2019-01-24T12:55:40.103Z,17.37
2019-01-24T12:58:09.561Z,12.40
2019-01-24T13:00:40.757Z,12.27
2019-01-24T13:03:10.268Z,14.47
2019-01-24T13:05:39.838Z,15.63
2019-01-24T13:08:09.556Z,14.10
2019-01-24T13:10:39.016Z,14.70
2019-01-24T13:13:09.705Z,14.17
2019-01-24T13:15:39.631Z,15.10
2019-01-24T13:18:09.028Z,12.97
2019-01-24T13:20:38.501Z,119.57
2019-01-24T13:23:07.950Z,72.97
2019-01-24T13:25:37.418Z,45.23
2019-01-24T13:28:07.456Z,51.47
2019-01-24T13:30:36.910Z,25.27
2019-01-24T13:33:07.661Z,66.57
2019-01-24T13:35:37.546Z,67.63
2019-01-24T13:38:07.760Z,24.50
2019-01-24T13:40:38.721Z,30.63
2019-01-24T13:43:08.639Z,67.83
2019-01-24T13:45:41.369Z,26.57
2019-01-24T13:48:11.070Z,31.93
2019-01-24T13:50:40.534Z,24.00
2019-01-24T13:53:10.141Z,42.27
2019-01-24T13:55:39.678Z,29.30
2019-01-24T13:58:09.804Z,57.23
2019-01-24T14:00:40.941Z,48.37
2019-01-24T14:03:41.745Z,24.90
2019-01-24T14:06:06.960Z,31.10
2019-01-24T14:08:36.356Z,28.27
2019-01-24T14:11:05.828Z,34.70
2019-01-24T14:13:35.324Z,42.27
2019-01-24T14:16:04.900Z,27.07
2019-01-24T14:18:34.850Z,26.27
2019-01-24T14:21:04.646Z,56.13
2019-01-24T14:42:31.596Z,43.70
2019-01-24T14:45:01.124Z,28.53
2019-01-24T14:47:31.087Z,26.63
2019-01-24T14:50:00.810Z,26.70
2019-01-24T14:52:30.563Z,24.83
2019-01-24T14:55:00.039Z,28.27
2019-01-24T14:57:29.828Z,24.17
2019-01-24T14:59:59.824Z,24.03
2019-01-24T15:02:29.389Z,23.30
2019-01-24T15:04:59.215Z,22.17
2019-01-24T15:07:28.766Z,22.50
2019-01-24T15:09:58.531Z,21.20
2019-01-24T15:12:28.342Z,26.30
2019-01-24T15:14:58.210Z,133.03
2019-01-24T15:17:28.968Z,20.57
2019-01-24T15:19:58.624Z,22.23
2019-01-24T15:22:28.738Z,23.83
2019-01-24T15:24:58.557Z,21.77
2019-01-24T15:27:27.980Z,21.23
2019-01-24T15:29:57.480Z,24.00
2019-01-24T15:32:27.050Z,23.23
2019-01-24T15:34:56.605Z,20.87
2019-01-24T15:37:26.227Z,18.60
2019-01-24T15:39:55.954Z,21.93
2019-01-24T15:42:25.844Z,19.30
2019-01-24T15:44:55.238Z,19.07
2019-01-24T15:47:24.637Z,20.03
2019-01-24T15:49:54.145Z,19.13
2019-01-24T15:52:23.923Z,28.17
2019-01-24T15:54:53.528Z,20.37
2019-01-24T15:57:23.395Z,19.07
2019-01-24T15:59:53.022Z,20.10
2019-01-24T16:02:22.462Z,19.63
2019-01-24T16:04:52.173Z,18.03
2019-01-24T16:07:22.072Z,21.70
2019-01-24T16:09:51.456Z,19.77
2019-01-24T16:12:21.985Z,20.70
2019-01-24T16:14:51.490Z,22.27
2019-01-24T16:17:21.011Z,30.93
2019-01-24T16:19:50.454Z,32.20
2019-01-24T16:22:19.990Z,24.93
2019-01-24T16:24:51.992Z,36.40
2019-01-24T16:27:21.482Z,37.33
2019-01-24T16:29:50.989Z,35.00
2019-01-24T16:32:20.392Z,34.00
2019-01-24T16:34:49.888Z,36.57
2019-01-24T16:37:19.410Z,39.60
2019-01-24T16:39:48.815Z,23.60
2019-01-24T16:42:18.304Z,82.00
2019-01-24T16:44:47.704Z,47.83
2019-01-24T16:47:17.125Z,59.13
2019-01-24T16:49:46.671Z,25.93
2019-01-24T16:52:16.460Z,24.20
2019-01-24T16:54:45.899Z,87.13
2019-01-24T16:57:15.350Z,125.83
2019-01-24T16:59:45.037Z,109.83
2019-01-24T17:02:14.527Z,85.47
2019-01-24T17:04:43.933Z,92.23
2019-01-24T17:07:14.554Z,93.17
2019-01-24T17:09:44.035Z,69.20
2019-01-24T17:12:13.685Z,53.33
2019-01-24T17:14:43.106Z,56.70
2019-01-24T17:17:14.601Z,77.93
2019-01-24T17:19:44.104Z,65.37
2019-01-24T17:22:13.836Z,69.70
2019-01-24T17:24:43.234Z,63.17
2019-01-24T17:27:13.061Z,83.60
2019-01-24T17:29:42.574Z,72.77
2019-01-24T17:32:12.253Z,61.53
2019-01-24T17:34:41.654Z,48.33
2019-01-24T17:37:11.076Z,50.40
2019-01-24T17:39:40.606Z,52.27
2019-01-24T17:42:10.096Z,56.03
2019-01-24T17:44:40.560Z,54.73
2019-01-24T17:47:10.096Z,103.70
2019-01-24T17:49:40.196Z,108.63
2019-01-24T17:52:09.675Z,106.83
2019-01-24T17:54:39.088Z,131.13
2019-01-24T17:57:08.499Z,125.53
2019-01-24T17:59:38.065Z,39.77
2019-01-24T18:02:07.850Z,34.03
2019-01-24T18:04:37.807Z,34.50
2019-01-24T18:07:07.701Z,36.77
2019-01-24T18:09:37.142Z,34.73
2019-01-24T18:12:06.513Z,35.80
2019-01-24T18:14:36.180Z,39.77
2019-01-24T18:17:09.483Z,71.70
2019-01-24T18:19:38.884Z,95.10
2019-01-24T18:22:08.582Z,97.53
2019-01-24T18:24:38.084Z,126.80
2019-01-24T18:27:07.662Z,126.37
2019-01-24T18:29:37.063Z,138.23
2019-01-24T18:32:06.776Z,129.53
2019-01-24T18:34:36.302Z,163.93
2019-01-24T18:37:05.986Z,155.60
2019-01-24T18:39:35.411Z,113.67
2019-01-24T18:42:05.016Z,108.53
2019-01-24T18:44:36.699Z,109.77
2019-01-24T18:47:06.394Z,90.30
2019-01-24T18:49:36.205Z,65.67
2019-01-24T18:52:06.717Z,71.53
2019-01-24T18:54:37.169Z,80.70
2019-01-24T18:57:07.694Z,136.97
2019-01-24T18:59:37.397Z,122.80
2019-01-24T19:02:07.238Z,111.10
2019-01-24T19:04:37.734Z,90.60
2019-01-24T19:07:07.161Z,379.63
2019-01-24T19:09:36.748Z,65.00
2019-01-24T19:12:06.597Z,99.33
2019-01-24T19:14:36.297Z,128.90
2019-01-24T19:17:06.113Z,93.30
2019-01-24T19:19:35.831Z,67.23
2019-01-24T19:22:05.884Z,59.33
2019-01-24T19:24:36.950Z,49.40
2019-01-24T19:27:06.900Z,38.80
2019-01-24T19:29:36.403Z,36.20
2019-01-24T19:32:06.237Z,36.00
2019-01-24T19:34:38.124Z,42.43
2019-01-24T19:37:07.725Z,39.77
2019-01-24T19:39:37.398Z,68.67
2019-01-24T19:42:08.623Z,59.77
2019-01-24T19:44:38.149Z,44.47
2019-01-24T19:47:09.199Z,46.17
2019-01-24T19:49:39.031Z,44.10
2019-01-24T19:52:08.695Z,43.80
2019-01-24T19:54:38.256Z,37.67
2019-01-24T19:57:10.019Z,36.57
2019-01-24T19:59:40.242Z,35.87
2019-01-24T20:02:09.927Z,40.63
2019-01-24T20:04:40.101Z,53.13
2019-01-24T20:07:09.573Z,78.47
2019-01-24T20:09:39.294Z,73.00
2019-01-24T20:12:08.960Z,70.63
2019-01-24T20:14:38.370Z,75.30
2019-01-24T20:17:08.099Z,71.73
2019-01-24T20:19:37.676Z,70.80
2019-01-24T20:22:07.813Z,70.17
2019-01-24T20:24:37.635Z,56.57
2019-01-24T20:27:07.127Z,62.60
2019-01-24T20:29:37.085Z,31.53
2019-01-24T20:32:07.106Z,32.10
2019-01-24T20:34:36.828Z,63.97
2019-01-24T20:37:06.354Z,65.43
2019-01-24T20:39:36.577Z,64.33
2019-01-24T20:42:06.596Z,59.33
2019-01-24T20:44:36.342Z,44.57
2019-01-24T20:47:06.154Z,44.50
2019-01-24T20:49:35.887Z,44.03
2019-01-24T20:52:06.899Z,56.93
2019-01-24T20:54:36.655Z,72.47
2019-01-24T20:57:08.399Z,79.07
2019-01-24T20:59:38.201Z,74.97
2019-01-24T21:02:08.133Z,82.63
2019-01-24T21:04:40.108Z,66.13
2019-01-24T21:07:09.955Z,37.40
2019-01-24T21:09:39.609Z,34.23
2019-01-24T21:12:09.488Z,36.70
2019-01-24T21:14:39.183Z,31.30
2019-01-24T21:17:08.767Z,35.07
2019-01-24T21:19:38.458Z,36.33
2019-01-24T21:22:08.108Z,62.10
2019-01-24T21:24:37.761Z,75.40
2019-01-24T21:27:07.170Z,71.00
2019-01-24T21:29:36.886Z,62.47
2019-01-24T21:32:06.707Z,52.03
2019-01-24T21:34:36.359Z,47.57
2019-01-24T21:37:06.062Z,44.87
2019-01-24T21:39:35.926Z,58.20
2019-01-24T21:42:06.040Z,44.93
2019-01-24T21:44:35.633Z,33.33
2019-01-24T21:47:05.128Z,29.40
2019-01-24T21:49:34.917Z,33.17
2019-01-24T21:52:04.525Z,29.93
2019-01-24T21:54:33.964Z,28.57
2019-01-24T21:57:03.743Z,24.07
2019-01-24T21:59:34.343Z,32.27
2019-01-24T22:02:03.739Z,30.07
2019-01-24T22:04:33.642Z,27.73
2019-01-24T22:07:03.369Z,29.07
2019-01-24T22:09:32.933Z,25.40
2019-01-24T22:12:02.344Z,22.43
2019-01-24T22:14:31.852Z,20.53
2019-01-24T22:17:01.331Z,29.47
2019-01-24T22:19:31.149Z,27.30
2019-01-24T22:22:00.982Z,23.20
2019-01-24T22:24:30.477Z,21.43
2019-01-24T22:27:00.160Z,25.30
2019-01-24T22:29:29.534Z,26.07
2019-01-24T22:31:59.003Z,23.43
2019-01-24T22:34:28.478Z,26.03
2019-01-24T22:36:59.390Z,27.53
2019-01-24T22:39:29.039Z,28.87
2019-01-24T22:41:58.458Z,24.97
2019-01-24T22:44:28.198Z,26.53
2019-01-24T22:46:57.673Z,26.97
2019-01-24T22:49:27.454Z,23.17
2019-01-24T22:51:56.868Z,21.93
2019-01-24T22:54:27.956Z,26.63
2019-01-24T22:56:57.824Z,32.63
2019-01-24T22:59:27.276Z,24.67
2019-01-24T23:02:05.861Z,20.73
2019-01-24T23:04:35.556Z,23.10
2019-01-24T23:07:05.563Z,23.83
2019-01-24T23:09:34.960Z,26.57
2019-01-24T23:12:05.274Z,23.23
2019-01-24T23:14:35.013Z,32.73
2019-01-24T23:17:04.637Z,28.70
2019-01-24T23:19:34.324Z,26.47
2019-01-24T23:22:04.054Z,25.43
2019-01-24T23:24:33.611Z,23.97
2019-01-24T23:27:03.408Z,27.80
2019-01-24T23:29:33.163Z,27.00
2019-01-24T23:32:02.659Z,22.60
2019-01-24T23:34:32.267Z,24.87
2019-01-24T23:37:01.682Z,25.47
2019-01-24T23:39:31.365Z,25.43
2019-01-24T23:42:00.850Z,24.67
2019-01-24T23:44:30.243Z,23.63
2019-01-24T23:46:59.989Z,24.93
2019-01-24T23:49:29.825Z,27.37
2019-01-24T23:51:59.514Z,28.53
2019-01-24T23:54:28.928Z,28.67
2019-01-24T23:56:58.339Z,35.67
2019-01-24T23:59:29.508Z,40.20
